createdAt,value
2022-11-02T00:00:32.832Z,13.20
2022-11-02T00:03:02.775Z,13.20
2022-11-02T00:05:33.821Z,13.20
2022-11-02T00:08:22.437Z,13.10
2022-11-02T00:10:51.630Z,13.10
2022-11-02T00:13:22.008Z,13.10
2022-11-02T00:15:50.869Z,13.10
2022-11-02T00:18:20.297Z,13.10
2022-11-02T00:20:50.350Z,13.10
2022-11-02T00:23:19.181Z,13.10
2022-11-02T00:25:49.967Z,13.10
2022-11-02T00:28:19.034Z,13.10
2022-11-02T00:30:48.134Z,13.10
2022-11-02T00:33:16.942Z,13.10
2022-11-02T00:35:46.208Z,13.20
2022-11-02T00:38:16.441Z,13.20
2022-11-02T00:40:46.407Z,13.20
2022-11-02T00:43:15.365Z,13.20
2022-11-02T00:45:44.113Z,13.20
2022-11-02T00:48:12.907Z,13.20
2022-11-02T00:50:42.388Z,13.20
2022-11-02T00:53:11.406Z,13.20
2022-11-02T00:55:47.598Z,13.10
2022-11-02T00:58:16.491Z,13.10
2022-11-02T01:00:45.676Z,13.10
2022-11-02T01:03:14.559Z,13.10
2022-11-02T01:05:43.541Z,13.10
2022-11-02T01:08:12.681Z,13.20
2022-11-02T01:10:44.144Z,13.20
2022-11-02T01:13:17.443Z,13.20
2022-11-02T01:15:46.324Z,13.20
2022-11-02T01:18:15.144Z,13.20
2022-11-02T01:20:44.225Z,13.20
2022-11-02T01:23:15.325Z,13.10
2022-11-02T01:25:46.803Z,13.10
2022-11-02T01:28:17.020Z,13.10
2022-11-02T01:30:48.662Z,13.10
2022-11-02T01:33:17.421Z,13.10
2022-11-02T01:35:46.317Z,13.00
2022-11-02T01:38:15.053Z,13.00
2022-11-02T01:40:43.985Z,13.00
2022-11-02T01:43:26.092Z,13.10
2022-11-02T01:45:57.909Z,13.10
2022-11-02T01:48:32.197Z,13.10
2022-11-02T01:51:03.680Z,13.10
2022-11-02T01:53:35.367Z,13.10
2022-11-02T01:56:05.312Z,13.10
2022-11-02T01:58:35.787Z,13.10
2022-11-02T02:01:04.756Z,13.10
2022-11-02T02:03:36.188Z,13.10
2022-11-02T02:06:09.755Z,13.10
2022-11-02T02:08:42.658Z,13.10
2022-11-02T02:11:27.336Z,13.10
2022-11-02T02:14:00.363Z,13.10
2022-11-02T02:19:29.816Z,13.10
2022-11-02T02:22:16.810Z,13.00
2022-11-02T02:24:52.764Z,13.00
2022-11-02T02:27:24.779Z,13.00
2022-11-02T02:30:06.060Z,13.00
2022-11-02T02:32:41.046Z,13.00
2022-11-02T02:35:17.435Z,12.90
2022-11-02T02:37:54.029Z,12.90
2022-11-02T02:40:28.838Z,12.90
2022-11-02T02:43:04.589Z,12.90
2022-11-02T02:45:38.576Z,12.80
2022-11-02T02:48:12.655Z,12.80
2022-11-02T02:50:48.021Z,12.80
2022-11-02T02:53:20.385Z,12.80
2022-11-02T02:55:51.184Z,12.70
2022-11-02T02:58:23.932Z,12.70
2022-11-02T03:00:55.581Z,12.70
2022-11-02T03:03:27.209Z,12.60
2022-11-02T03:06:04.174Z,12.60
2022-11-02T03:08:39.038Z,12.60
2022-11-02T03:11:14.880Z,12.50
2022-11-02T03:14:01.957Z,12.50
2022-11-02T03:16:44.903Z,12.50
2022-11-02T03:19:24.029Z,12.50
2022-11-02T03:22:01.297Z,12.40
2022-11-02T03:24:34.996Z,12.40
2022-11-02T03:27:15.810Z,12.40
2022-11-02T03:29:55.363Z,12.40
2022-11-02T03:32:31.513Z,12.30
2022-11-02T03:35:04.846Z,12.30
2022-11-02T03:37:38.662Z,12.30
2022-11-02T03:40:12.585Z,12.30
2022-11-02T03:42:44.908Z,12.30
2022-11-02T03:45:19.796Z,12.20
2022-11-02T03:47:53.988Z,12.20
2022-11-02T03:50:24.344Z,12.20
2022-11-02T03:52:59.885Z,12.20
2022-11-02T03:55:32.676Z,12.20
2022-11-02T03:58:02.140Z,12.10
2022-11-02T04:00:35.879Z,12.10
2022-11-02T04:03:13.261Z,12.10
2022-11-02T04:05:45.668Z,12.00
2022-11-02T04:08:24.520Z,12.00
2022-11-02T04:11:18.105Z,12.00
2022-11-02T04:14:06.082Z,12.00
2022-11-02T04:16:39.657Z,12.00
2022-11-02T04:19:28.624Z,11.90
2022-11-02T04:22:24.079Z,11.90
2022-11-02T04:25:16.064Z,11.90
2022-11-02T04:27:52.842Z,11.90
2022-11-02T04:30:26.579Z,11.90
2022-11-02T04:33:11.598Z,11.90
2022-11-02T04:35:48.715Z,11.90
2022-11-02T04:38:35.720Z,11.90
2022-11-02T04:41:22.037Z,11.90
2022-11-02T04:43:53.548Z,11.90
2022-11-02T04:46:23.865Z,11.90
2022-11-02T04:48:53.496Z,11.90
2022-11-02T04:51:25.582Z,11.90
2022-11-02T04:53:56.045Z,11.90
2022-11-02T04:56:26.310Z,11.90
2022-11-02T04:58:57.716Z,12.00
2022-11-02T05:01:29.231Z,12.00
2022-11-02T05:03:58.841Z,12.00
2022-11-02T05:06:31.331Z,12.00
2022-11-02T05:09:00.246Z,12.00
2022-11-02T05:11:29.315Z,12.00
2022-11-02T05:13:59.576Z,12.00
2022-11-02T05:16:29.540Z,12.00
2022-11-02T05:18:58.851Z,12.00
2022-11-02T05:21:28.254Z,12.00
2022-11-02T05:23:59.501Z,12.00
2022-11-02T05:26:29.305Z,12.00
2022-11-02T05:28:58.316Z,12.00
2022-11-02T05:31:27.404Z,12.00
2022-11-02T05:33:56.546Z,12.00
2022-11-02T05:36:26.041Z,12.00
2022-11-02T05:38:56.337Z,12.00
2022-11-02T05:41:27.481Z,12.00
2022-11-02T05:43:58.332Z,12.00
2022-11-02T05:46:30.029Z,12.00
2022-11-02T05:48:59.032Z,12.00
2022-11-02T05:51:27.942Z,12.00
2022-11-02T05:53:56.970Z,12.00
2022-11-02T05:56:27.939Z,12.00
2022-11-02T05:58:57.105Z,12.00
2022-11-02T06:01:26.222Z,12.10
2022-11-02T06:03:55.159Z,12.00
2022-11-02T06:06:24.340Z,12.00
2022-11-02T06:08:53.237Z,12.00
2022-11-02T06:11:22.385Z,12.00
2022-11-02T06:13:53.171Z,12.00
2022-11-02T06:16:23.417Z,11.90
2022-11-02T06:18:52.745Z,11.90
2022-11-02T06:21:22.050Z,11.90
2022-11-02T06:23:51.868Z,11.90
2022-11-02T06:26:20.962Z,11.80
2022-11-02T06:28:50.220Z,11.80
2022-11-02T06:31:20.934Z,11.80
2022-11-02T06:33:49.745Z,11.80
2022-11-02T06:36:18.889Z,11.80
2022-11-02T06:38:48.183Z,11.80
2022-11-02T06:41:17.166Z,11.80
2022-11-02T06:43:46.149Z,11.90
2022-11-02T06:46:15.194Z,11.90
2022-11-02T06:48:48.484Z,11.90
2022-11-02T06:51:17.993Z,12.00
2022-11-02T06:53:47.085Z,12.00
2022-11-02T06:56:16.152Z,12.10
2022-11-02T06:58:45.384Z,12.10
2022-11-02T07:01:15.792Z,12.10
2022-11-02T07:03:46.097Z,12.20
2022-11-02T07:06:15.454Z,12.20
2022-11-02T07:08:44.600Z,12.30
2022-11-02T07:11:16.936Z,12.40
2022-11-02T07:13:46.273Z,12.40
2022-11-02T07:16:15.343Z,12.50
2022-11-02T07:18:44.205Z,12.60
2022-11-02T07:21:14.688Z,12.70
2022-11-02T07:23:44.377Z,12.80
2022-11-02T07:26:13.437Z,12.90
2022-11-02T07:28:42.485Z,13.00
2022-11-02T07:31:11.474Z,13.00
2022-11-02T07:33:40.426Z,13.10
2022-11-02T07:36:10.089Z,13.20
2022-11-02T07:38:40.847Z,13.30
2022-11-02T07:41:09.988Z,13.40
2022-11-02T07:43:41.473Z,13.40
2022-11-02T07:46:35.052Z,13.50
2022-11-02T07:49:04.121Z,13.60
2022-11-02T07:51:33.439Z,13.70
2022-11-02T07:54:03.778Z,13.80
2022-11-02T07:56:32.579Z,13.90
2022-11-02T07:59:01.688Z,14.00
2022-11-02T08:01:30.709Z,14.10
2022-11-02T08:03:59.975Z,14.20
2022-11-02T08:06:29.022Z,14.30
2022-11-02T08:08:57.835Z,14.40
2022-11-02T08:11:28.215Z,14.40
2022-11-02T08:13:57.232Z,14.50
2022-11-02T08:16:26.350Z,14.50
2022-11-02T08:18:55.349Z,14.60
2022-11-02T08:21:24.476Z,14.60
2022-11-02T08:23:58.324Z,14.60
2022-11-02T08:26:29.217Z,14.60
2022-11-02T08:28:58.379Z,14.60
2022-11-02T08:31:27.571Z,14.70
2022-11-02T08:33:58.621Z,14.70
2022-11-02T08:36:27.667Z,14.70
2022-11-02T08:38:56.709Z,14.70
2022-11-02T08:41:25.710Z,14.80
2022-11-02T08:43:57.010Z,14.80
2022-11-02T08:46:26.194Z,14.80
2022-11-02T08:48:54.965Z,14.80
2022-11-02T08:51:23.997Z,14.90
2022-11-02T08:53:52.837Z,14.90
2022-11-02T08:56:22.158Z,14.90
2022-11-02T08:58:51.099Z,14.90
2022-11-02T09:01:21.437Z,15.00
2022-11-02T09:03:50.409Z,15.00
2022-11-02T09:06:19.529Z,15.00
2022-11-02T09:08:48.730Z,15.10
2022-11-02T09:11:17.981Z,15.10
2022-11-02T09:13:47.129Z,15.20
2022-11-02T09:16:16.191Z,15.20
2022-11-02T09:18:46.775Z,15.20
2022-11-02T09:21:15.963Z,15.30
2022-11-02T09:23:48.385Z,15.30
2022-11-02T09:26:17.296Z,15.30
2022-11-02T09:28:46.397Z,15.40
2022-11-02T09:31:15.252Z,15.40
2022-11-02T09:33:44.445Z,15.40
2022-11-02T09:36:14.789Z,15.50
2022-11-02T09:38:44.081Z,15.50
2022-11-02T09:41:23.891Z,15.60
2022-11-02T09:44:00.506Z,15.70
2022-11-02T09:46:33.655Z,15.70
2022-11-02T09:49:05.712Z,15.80
2022-11-02T09:51:39.757Z,15.80
2022-11-02T09:54:17.580Z,15.80
2022-11-02T09:56:48.094Z,15.90
2022-11-02T09:59:18.889Z,15.90
2022-11-02T10:02:01.916Z,15.90
2022-11-02T10:04:59.778Z,16.00
2022-11-02T10:07:54.583Z,16.20
2022-11-02T10:10:33.037Z,16.50
2022-11-02T10:13:10.302Z,16.80
2022-11-02T10:15:42.289Z,17.20
2022-11-02T10:18:18.618Z,17.40
2022-11-02T10:20:50.628Z,17.60
2022-11-02T10:23:27.793Z,17.70
2022-11-02T10:25:57.222Z,17.70
2022-11-02T10:28:31.219Z,17.70
2022-11-02T10:31:01.750Z,17.70
2022-11-02T10:33:32.904Z,17.60
2022-11-02T10:36:20.671Z,17.60
2022-11-02T10:39:03.402Z,17.70
2022-11-02T10:41:49.213Z,17.80
2022-11-02T10:44:31.303Z,18.10
2022-11-02T10:47:11.925Z,18.40
2022-11-02T10:50:09.600Z,18.80
2022-11-02T10:52:44.849Z,19.30
2022-11-02T10:55:24.347Z,19.80
2022-11-02T10:57:56.209Z,20.40
2022-11-02T11:00:28.545Z,21.00
2022-11-02T11:03:11.014Z,21.40
2022-11-02T11:05:58.090Z,21.80
2022-11-02T11:08:32.742Z,22.00
2022-11-02T11:11:16.713Z,22.10
2022-11-02T11:16:44.874Z,22.10
2022-11-02T11:19:39.474Z,21.90
2022-11-02T11:22:26.241Z,21.80
2022-11-02T11:25:16.588Z,21.70
2022-11-02T11:27:48.825Z,21.70
2022-11-02T11:30:58.435Z,21.60
2022-11-02T11:33:20.462Z,21.40
2022-11-02T11:35:51.482Z,21.20
2022-11-02T11:38:22.512Z,21.00
2022-11-02T11:40:54.654Z,20.70
2022-11-02T11:43:27.916Z,20.50
2022-11-02T11:46:05.396Z,20.30
2022-11-02T11:48:39.057Z,20.10
2022-11-02T11:51:27.290Z,20.00
2022-11-02T11:54:30.580Z,19.90
2022-11-02T11:57:01.429Z,19.90
2022-11-02T11:59:45.874Z,19.80
2022-11-02T12:02:25.197Z,20.00
2022-11-02T12:05:12.739Z,20.50
2022-11-02T12:08:03.930Z,21.20
2022-11-02T12:10:49.032Z,21.90
2022-11-02T12:13:32.981Z,22.50
2022-11-02T12:16:15.658Z,22.90
2022-11-02T12:19:04.527Z,23.10
2022-11-02T12:21:46.133Z,23.00
2022-11-02T12:24:54.597Z,22.90
2022-11-02T12:27:34.189Z,22.60
2022-11-02T12:30:19.491Z,22.30
2022-11-02T12:33:13.204Z,22.10
2022-11-02T12:36:02.934Z,21.80
2022-11-02T12:38:54.453Z,21.50
2022-11-02T12:41:49.010Z,21.30
2022-11-02T12:44:36.680Z,21.10
2022-11-02T12:47:20.016Z,21.00
2022-11-02T12:49:59.025Z,21.00
2022-11-02T12:52:38.641Z,21.00
2022-11-02T12:55:17.463Z,20.90
2022-11-02T12:57:48.146Z,20.90
2022-11-02T13:00:20.926Z,20.80
2022-11-02T13:02:58.741Z,20.70
2022-11-02T13:05:34.691Z,20.50
2022-11-02T13:08:12.867Z,20.30
2022-11-02T13:10:49.333Z,20.20
2022-11-02T13:13:28.331Z,20.00
2022-11-02T13:15:58.005Z,19.90
2022-11-02T13:18:31.169Z,19.70
2022-11-02T13:21:04.344Z,19.50
2022-11-02T13:23:39.338Z,19.40
2022-11-02T13:26:15.015Z,19.30
2022-11-02T13:28:48.554Z,19.20
2022-11-02T13:31:24.702Z,19.10
2022-11-02T13:33:57.184Z,19.00
2022-11-02T13:36:28.014Z,18.90
2022-11-02T13:39:01.886Z,18.80
2022-11-02T13:41:45.271Z,18.70
2022-11-02T13:44:37.396Z,18.60
2022-11-02T13:47:43.739Z,18.50
2022-11-02T13:50:15.911Z,18.40
2022-11-02T13:52:50.131Z,18.40
2022-11-02T13:55:23.211Z,18.30
2022-11-02T13:57:57.390Z,18.20
2022-11-02T14:00:31.951Z,18.10
2022-11-02T14:03:08.177Z,18.10
2022-11-02T14:05:44.745Z,18.00
2022-11-02T14:08:22.894Z,17.90
2022-11-02T14:11:25.238Z,17.90
2022-11-02T14:14:20.133Z,17.80
2022-11-02T14:17:14.188Z,17.70
2022-11-02T14:19:54.982Z,17.70
2022-11-02T14:22:25.320Z,17.60
2022-11-02T14:25:11.042Z,17.60
2022-11-02T14:27:40.201Z,17.50
2022-11-02T14:30:45.621Z,17.50
2022-11-02T14:33:36.150Z,17.40
2022-11-02T14:36:09.207Z,17.40
2022-11-02T14:38:54.887Z,17.30
2022-11-02T14:41:43.432Z,17.30
2022-11-02T14:44:40.692Z,17.30
2022-11-02T14:47:13.263Z,17.20
2022-11-02T14:49:49.807Z,17.20
2022-11-02T14:52:27.511Z,17.10
2022-11-02T14:55:02.699Z,17.10
2022-11-02T14:57:36.883Z,17.10
2022-11-02T15:00:18.530Z,17.00
2022-11-02T15:02:48.946Z,17.00
2022-11-02T15:05:25.093Z,17.00
2022-11-02T15:07:59.611Z,17.00
2022-11-02T15:10:41.582Z,16.90
2022-11-02T15:13:48.919Z,16.90
2022-11-02T15:16:25.097Z,16.90
2022-11-02T15:18:55.959Z,16.90
2022-11-02T15:21:30.952Z,16.80
2022-11-02T15:24:16.591Z,16.80
2022-11-02T15:26:52.171Z,16.80
2022-11-02T15:29:38.864Z,16.70
2022-11-02T15:32:18.217Z,16.70
2022-11-02T15:34:52.473Z,16.70
2022-11-02T15:37:24.331Z,16.60
2022-11-02T15:39:54.839Z,16.60
2022-11-02T15:42:38.056Z,16.50
2022-11-02T15:45:48.895Z,16.50
2022-11-02T15:48:40.004Z,16.40
2022-11-02T15:51:17.320Z,16.40
2022-11-02T15:54:02.736Z,16.30
2022-11-02T15:56:47.221Z,16.20
2022-11-02T15:59:51.762Z,16.20
2022-11-02T16:02:27.713Z,16.10
2022-11-02T16:04:59.920Z,16.10
2022-11-02T16:07:38.241Z,16.00
2022-11-02T16:10:23.185Z,16.00
2022-11-02T16:12:59.996Z,15.90
2022-11-02T16:15:31.003Z,15.90
2022-11-02T16:18:01.902Z,15.90
2022-11-02T16:20:34.835Z,15.80
2022-11-02T16:23:06.195Z,15.80
2022-11-02T16:25:40.385Z,15.80
2022-11-02T16:28:19.336Z,15.70
2022-11-02T16:31:15.745Z,15.70
2022-11-02T16:33:51.466Z,15.70
2022-11-02T16:36:22.717Z,15.60
2022-11-02T16:38:59.397Z,15.50
2022-11-02T16:41:30.298Z,15.50
2022-11-02T16:44:03.563Z,15.40
2022-11-02T16:46:41.912Z,15.40
2022-11-02T16:49:18.478Z,15.30
2022-11-02T16:51:54.880Z,15.20
2022-11-02T16:54:41.393Z,15.20
2022-11-02T16:57:16.812Z,15.10
2022-11-02T16:59:52.739Z,15.10
2022-11-02T17:02:32.646Z,15.10
2022-11-02T17:05:06.607Z,15.00
2022-11-02T17:07:40.495Z,15.00
2022-11-02T17:10:18.757Z,14.90
2022-11-02T17:12:49.749Z,14.90
2022-11-02T17:15:22.747Z,14.90
2022-11-02T17:18:12.029Z,14.80
2022-11-02T17:20:42.501Z,14.80
2022-11-02T17:23:31.181Z,14.70
2022-11-02T17:26:34.668Z,14.70
2022-11-02T17:29:24.836Z,14.60
2022-11-02T17:32:00.380Z,14.60
2022-11-02T17:34:30.706Z,14.60
2022-11-02T17:36:59.570Z,14.50
2022-11-02T17:39:28.477Z,14.50
2022-11-02T17:42:17.104Z,14.50
2022-11-02T17:44:46.488Z,14.50
2022-11-02T17:47:19.306Z,14.40
2022-11-02T17:49:48.587Z,14.40
2022-11-02T17:52:17.680Z,14.40
2022-11-02T17:54:46.895Z,14.30
2022-11-02T17:57:17.123Z,14.30
2022-11-02T17:59:46.287Z,14.20
2022-11-02T18:02:17.107Z,14.20
2022-11-02T18:04:46.158Z,14.20
2022-11-02T18:07:14.952Z,14.20
2022-11-02T18:09:43.667Z,14.10
2022-11-02T18:12:14.179Z,14.10
2022-11-02T18:14:43.538Z,14.00
2022-11-02T18:17:12.811Z,14.00
2022-11-02T18:19:43.250Z,14.00
2022-11-02T18:22:14.909Z,13.90
2022-11-02T18:24:44.941Z,13.90
2022-11-02T18:27:14.583Z,13.90
2022-11-02T18:29:43.917Z,13.80
2022-11-02T18:32:13.201Z,13.80
2022-11-02T18:34:43.702Z,13.70
2022-11-02T18:37:12.831Z,13.70
2022-11-02T18:39:41.788Z,13.70
2022-11-02T18:42:10.751Z,13.60
2022-11-02T18:44:39.911Z,13.60
2022-11-02T18:47:09.950Z,13.50
2022-11-02T18:49:39.141Z,13.50
2022-11-02T18:52:09.796Z,13.50
2022-11-02T18:54:38.903Z,13.40
2022-11-02T18:57:08.340Z,13.40
2022-11-02T18:59:37.971Z,13.30
2022-11-02T19:02:07.480Z,13.30
2022-11-02T19:04:36.618Z,13.20
2022-11-02T19:07:23.360Z,13.20
2022-11-02T19:09:53.674Z,13.10
2022-11-02T19:12:24.580Z,13.10
2022-11-02T19:14:54.256Z,13.00
2022-11-02T19:17:24.873Z,13.00
2022-11-02T19:19:54.377Z,13.00
2022-11-02T19:22:25.406Z,13.00
2022-11-02T19:24:55.605Z,13.00
2022-11-02T19:27:26.008Z,12.90
2022-11-02T19:29:55.036Z,12.90
2022-11-02T19:32:23.831Z,12.90
2022-11-02T19:34:52.532Z,12.90
2022-11-02T19:37:21.327Z,12.80
2022-11-02T19:39:50.349Z,12.80
2022-11-02T19:42:20.526Z,12.80
2022-11-02T19:44:49.495Z,12.80
2022-11-02T19:47:18.867Z,12.70
2022-11-02T19:49:47.798Z,12.70
2022-11-02T19:52:16.881Z,12.70
2022-11-02T19:54:46.114Z,12.60
2022-11-02T19:57:15.054Z,12.60
2022-11-02T19:59:45.380Z,12.60
2022-11-02T20:02:14.352Z,12.50
2022-11-02T20:04:44.185Z,12.50
2022-11-02T20:07:13.274Z,12.50
2022-11-02T20:09:42.537Z,12.50
2022-11-02T20:12:11.649Z,12.50
2022-11-02T20:14:41.036Z,12.40
2022-11-02T20:17:30.236Z,12.40
2022-11-02T20:20:01.346Z,12.40
2022-11-02T20:22:30.072Z,12.40
2022-11-02T20:24:59.064Z,12.40
2022-11-02T20:27:27.849Z,12.30
2022-11-02T20:29:56.581Z,12.30
2022-11-02T20:32:26.993Z,12.30
2022-11-02T20:34:55.863Z,12.30
2022-11-02T20:37:24.661Z,12.20
2022-11-02T20:39:53.425Z,12.20
2022-11-02T20:42:22.323Z,12.20
2022-11-02T20:44:51.182Z,12.20
2022-11-02T20:47:20.159Z,12.20
2022-11-02T20:49:51.398Z,12.20
2022-11-02T20:52:21.903Z,12.10
2022-11-02T20:54:50.736Z,12.10
2022-11-02T20:57:20.465Z,12.00
2022-11-02T20:59:49.217Z,12.00
2022-11-02T21:02:17.968Z,12.00
2022-11-02T21:04:47.090Z,11.90
2022-11-02T21:07:17.562Z,11.90
2022-11-02T21:09:46.686Z,11.80
2022-11-02T21:12:33.882Z,11.90
2022-11-02T21:15:03.164Z,11.80
2022-11-02T21:17:32.124Z,11.80
2022-11-02T21:20:20.982Z,11.80
2022-11-02T21:22:52.463Z,11.80
2022-11-02T21:25:21.502Z,11.80
2022-11-02T21:27:51.172Z,11.70
2022-11-02T21:30:20.864Z,11.70
2022-11-02T21:32:51.627Z,11.70
2022-11-02T21:35:21.607Z,11.70
2022-11-02T21:37:56.001Z,11.60
2022-11-02T21:40:25.403Z,11.60
2022-11-02T21:42:54.417Z,11.60
2022-11-02T21:45:26.164Z,11.50
2022-11-02T21:47:55.597Z,11.50
2022-11-02T21:50:24.689Z,11.50
2022-11-02T21:52:55.505Z,11.50
2022-11-02T21:55:24.642Z,11.50
2022-11-02T21:57:53.752Z,11.40
2022-11-02T22:00:22.875Z,11.40
2022-11-02T22:02:51.023Z,11.40
2022-11-02T22:05:40.558Z,11.40
2022-11-02T22:10:58.486Z,11.30
2022-11-02T22:13:33.209Z,11.30
2022-11-02T22:16:14.695Z,11.30
2022-11-02T22:18:45.488Z,11.30
2022-11-02T22:21:15.688Z,11.30
2022-11-02T22:23:47.993Z,11.20
2022-11-02T22:26:20.362Z,11.20
2022-11-02T22:28:51.042Z,11.20
2022-11-02T22:31:23.066Z,11.20
2022-11-02T22:33:54.885Z,11.20
2022-11-02T22:36:25.497Z,11.20
2022-11-02T22:38:56.024Z,11.20
2022-11-02T22:41:27.183Z,11.20
2022-11-02T22:43:57.747Z,11.20
2022-11-02T22:46:28.073Z,11.20
2022-11-02T22:48:59.139Z,11.10
2022-11-02T22:51:30.284Z,11.10
2022-11-02T22:54:03.799Z,11.10
2022-11-02T22:56:33.439Z,11.10
2022-11-02T22:59:03.216Z,11.10
2022-11-02T23:01:33.082Z,11.10
2022-11-02T23:04:02.842Z,11.00
2022-11-02T23:06:32.269Z,11.00
2022-11-02T23:09:02.589Z,11.00
2022-11-02T23:11:32.480Z,10.90
2022-11-02T23:14:03.868Z,10.90
2022-11-02T23:16:35.648Z,10.90
2022-11-02T23:19:29.665Z,10.90
2022-11-02T23:22:17.756Z,10.90
2022-11-02T23:25:07.445Z,10.90
2022-11-02T23:27:58.309Z,10.90
2022-11-02T23:30:47.025Z,10.80
2022-11-02T23:33:17.013Z,10.80
2022-11-02T23:36:15.569Z,10.80
2022-11-02T23:39:03.655Z,10.80
2022-11-02T23:41:35.264Z,10.80
2022-11-02T23:44:14.080Z,10.70
2022-11-02T23:46:44.373Z,10.70
2022-11-02T23:49:13.248Z,10.70
2022-11-02T23:51:59.661Z,10.60
2022-11-02T23:54:46.270Z,10.60
2022-11-02T23:57:16.617Z,10.60
2022-11-02T23:59:45.516Z,10.60
